Time;durP1;ratioP1;P1;durP2;ratioP2;P2;SDS_P1;SDS_P2;PMS_P1;PMS_P2;Temp;Humidity;BMP_temperature;BMP_pressure;BME280_temperature;BME280_humidity;BME280_pressure;Samples;Min_cycle;Max_cycle;Signal;HPM_P1;HPM_P2
2021/04/15 00:01:03;;;;;;;1.58;0.30;;;3.90;99.90;;;;;;5049324;28;20044;-72
2021/04/15 00:03:31;;;;;;;3.35;0.55;;;3.80;99.90;;;;;;5047345;28;20033;-72
2021/04/15 00:06:01;;;;;;;2.60;0.85;;;3.90;99.90;;;;;;5049008;28;20099;-72
2021/04/15 00:08:27;;;;;;;1.27;0.43;;;3.90;99.90;;;;;;5049432;28;20029;-72
2021/04/15 00:10:56;;;;;;;4.10;0.40;;;3.90;99.90;;;;;;5049372;28;20060;-72
2021/04/15 00:13:33;;;;;;;3.00;0.40;;;3.90;99.90;;;;;;5050339;28;20438;-72
2021/04/15 00:16:00;;;;;;;3.67;0.60;;;3.90;99.90;;;;;;5049950;28;20039;-72
2021/04/15 00:18:27;;;;;;;3.70;0.45;;;3.90;99.90;;;;;;5049642;28;20072;-72
2021/04/15 00:20:52;;;;;;;3.20;0.50;;;4.00;99.90;;;;;;5048797;28;20153;-72
2021/04/15 00:23:18;;;;;;;3.28;0.50;;;3.90;99.90;;;;;;5049059;28;20628;-72
2021/04/15 00:25:44;;;;;;;1.75;0.40;;;4.00;99.90;;;;;;5047220;28;20033;-72
2021/04/15 00:28:10;;;;;;;2.70;0.60;;;3.90;99.90;;;;;;5050474;28;20037;-72
2021/04/15 00:30:36;;;;;;;3.03;0.40;;;3.90;99.90;;;;;;5049024;28;20124;-72
2021/04/15 00:33:07;;;;;;;3.83;0.68;;;3.80;99.90;;;;;;5048676;28;20502;-72
2021/04/15 00:35:33;;;;;;;2.58;0.70;;;4.00;99.90;;;;;;5045160;28;20556;-73
2021/04/15 00:37:59;;;;;;;2.08;0.40;;;3.70;99.90;;;;;;5044836;28;20032;-72
2021/04/15 00:40:25;;;;;;;1.30;0.52;;;3.70;99.90;;;;;;5048180;28;20044;-72
2021/04/15 00:42:51;;;;;;;2.00;0.38;;;3.70;99.90;;;;;;5048413;28;20605;-72
2021/04/15 00:45:26;;;;;;;2.67;0.40;;;3.60;99.90;;;;;;5048314;28;20040;-72
2021/04/15 00:48:08;;;;;;;1.35;0.40;;;3.60;99.90;;;;;;5047707;28;20041;-72
2021/04/15 00:50:55;;;;;;;1.83;0.50;;;3.70;99.90;;;;;;5047176;28;20067;-72
2021/04/15 00:53:39;;;;;;;4.22;0.47;;;3.60;99.90;;;;;;5047613;28;20041;-72
2021/04/15 00:56:06;;;;;;;4.40;0.60;;;3.50;99.90;;;;;;5049108;28;20040;-72
2021/04/15 00:58:32;;;;;;;5.85;1.00;;;3.50;99.90;;;;;;5046842;28;20033;-72
2021/04/15 01:00:59;;;;;;;3.72;0.90;;;3.50;99.90;;;;;;5047592;28;20040;-72
2021/04/15 01:03:25;;;;;;;4.93;0.93;;;3.40;99.90;;;;;;5049488;28;20037;-72
2021/04/15 01:05:51;;;;;;;3.70;0.68;;;3.40;99.90;;;;;;5046425;28;20039;-72
2021/04/15 01:08:17;;;;;;;6.30;0.90;;;3.40;99.90;;;;;;5049932;28;20068;-72
2021/04/15 01:11:15;;;;;;;3.53;0.68;;;3.30;99.90;;;;;;5049144;28;20053;-72
2021/04/15 01:14:03;;;;;;;4.97;0.77;;;3.30;99.90;;;;;;5046422;28;20568;-72
2021/04/15 01:16:39;;;;;;;3.42;0.70;;;3.10;99.90;;;;;;5047746;28;20043;-72
2021/04/15 01:19:36;;;;;;;4.25;0.93;;;3.00;99.90;;;;;;5058157;28;20032;-72
2021/04/15 01:22:09;;;;;;;3.45;1.10;;;2.90;99.90;;;;;;5046557;28;20086;-72
2021/04/15 01:24:52;;;;;;;1.60;0.52;;;2.90;99.90;;;;;;5048713;28;20068;-72
2021/04/15 01:27:36;;;;;;;2.65;0.80;;;2.90;99.90;;;;;;5043258;28;20722;-72
2021/04/15 01:30:10;;;;;;;1.45;0.50;;;2.90;99.90;;;;;;5046224;28;20376;-72
2021/04/15 01:32:46;;;;;;;2.58;0.90;;;2.80;99.90;;;;;;5046116;28;21049;-72
2021/04/15 01:35:16;;;;;;;;;;;2.90;99.90;;;;;;5042546;28;20044;-73
2021/04/15 01:37:53;;;;;;;2.10;0.50;;;2.90;99.90;;;;;;5050666;28;19920;-72
2021/04/15 01:40:47;;;;;;;1.50;0.55;;;2.90;99.90;;;;;;5044065;28;20033;-72
2021/04/15 01:43:28;;;;;;;1.55;0.63;;;2.90;99.90;;;;;;5047318;28;20049;-72
2021/04/15 01:45:54;;;;;;;1.98;0.55;;;2.90;99.90;;;;;;5046856;28;20116;-72
2021/04/15 01:48:40;;;;;;;3.50;0.75;;;2.80;99.90;;;;;;5049570;28;20518;-72
2021/04/15 01:51:14;;;;;;;3.13;0.77;;;2.80;99.90;;;;;;5046904;28;20048;-72
2021/04/15 01:53:48;;;;;;;7.07;1.20;;;2.90;99.90;;;;;;5044471;28;20306;-72
2021/04/15 01:56:29;;;;;;;2.58;1.52;;;2.70;99.90;;;;;;5046940;28;20616;-72
2021/04/15 01:59:08;;;;;;;3.10;0.98;;;2.60;99.90;;;;;;5048151;28;20044;-72
2021/04/15 02:01:42;;;;;;;6.22;1.30;;;2.50;99.90;;;;;;5047874;28;20037;-72
2021/04/15 02:04:12;;;;;;;3.10;0.70;;;2.50;99.90;;;;;;5051166;28;20065;-72
2021/04/15 02:06:46;;;;;;;3.22;0.90;;;2.50;99.90;;;;;;5046096;28;20037;-72
2021/04/15 02:09:15;;;;;;;1.65;0.90;;;2.40;99.90;;;;;;5050582;28;20479;-72
2021/04/15 02:11:52;;;;;;;2.25;0.70;;;2.50;99.90;;;;;;5048050;28;21538;-72
2021/04/15 02:14:23;;;;;;;2.30;0.90;;;2.30;99.90;;;;;;5048637;28;20063;-72
2021/04/15 02:16:53;;;;;;;4.30;0.70;;;2.40;99.90;;;;;;5045830;28;20041;-72
2021/04/15 02:19:35;;;;;;;2.75;0.77;;;2.40;99.90;;;;;;5048663;28;20040;-72
2021/04/15 02:22:27;;;;;;;4.80;1.33;;;2.40;99.90;;;;;;5048113;28;20067;-72
2021/04/15 02:25:14;;;;;;;3.40;1.40;;;2.30;99.90;;;;;;5049856;28;20119;-72
2021/04/15 02:27:45;;;;;;;3.60;1.42;;;2.30;99.90;;;;;;5052314;28;20120;-73
2021/04/15 02:30:23;;;;;;;4.57;1.40;;;2.30;99.90;;;;;;5050664;28;20085;-72
2021/04/15 02:33:11;;;;;;;3.90;1.35;;;2.30;99.90;;;;;;5048315;28;20041;-72
2021/04/15 02:35:44;;;;;;;3.42;1.25;;;2.20;99.90;;;;;;5050589;28;20096;-72
2021/04/15 02:38:12;;;;;;;3.15;1.40;;;2.20;99.90;;;;;;5050184;28;20041;-72
2021/04/15 02:41:11;;;;;;;2.58;1.20;;;2.20;99.90;;;;;;5049693;28;20037;-72
2021/04/15 02:43:49;;;;;;;4.88;1.38;;;2.20;99.90;;;;;;5021279;28;20199;-72
2021/04/15 02:46:26;;;;;;;2.38;1.10;;;2.10;99.90;;;;;;5051391;28;20128;-72
2021/04/15 02:48:57;;;;;;;2.92;1.00;;;2.10;99.90;;;;;;5050952;28;20517;-72
2021/04/15 02:51:29;;;;;;;3.00;1.20;;;2.10;99.90;;;;;;5053235;28;20123;-72
2021/04/15 02:54:05;;;;;;;4.45;1.13;;;2.00;99.90;;;;;;5051263;28;20041;-72
2021/04/15 02:56:51;;;;;;;1.58;0.80;;;2.00;99.90;;;;;;5048560;28;20033;-72
2021/04/15 02:59:22;;;;;;;6.95;1.92;;;2.00;99.90;;;;;;5050080;28;20055;-72
2021/04/15 03:01:54;;;;;;;3.35;1.15;;;1.90;99.90;;;;;;5051588;28;20037;-72
2021/04/15 03:04:22;;;;;;;3.63;1.05;;;1.80;99.90;;;;;;5051981;28;20815;-72
2021/04/15 03:06:50;;;;;;;1.88;0.80;;;1.40;99.90;;;;;;5049685;28;20029;-72
2021/04/15 03:09:18;;;;;;;1.77;0.80;;;1.70;99.90;;;;;;5048276;28;20048;-72
2021/04/15 03:11:55;;;;;;;3.70;0.70;;;1.70;99.90;;;;;;5051505;28;20119;-72
2021/04/15 03:14:47;;;;;;;1.35;0.70;;;1.60;99.90;;;;;;5050142;28;20099;-72
2021/04/15 03:17:13;;;;;;;4.43;1.08;;;1.60;99.90;;;;;;5048297;28;20045;-72
2021/04/15 03:19:44;;;;;;;3.83;0.90;;;1.80;99.90;;;;;;5058676;28;20037;-72
2021/04/15 03:22:16;;;;;;;3.58;0.98;;;1.70;99.90;;;;;;5049913;28;20040;-72
2021/04/15 03:24:49;;;;;;;3.22;1.00;;;1.70;99.90;;;;;;5050187;28;20705;-72
2021/04/15 03:27:18;;;;;;;1.80;0.90;;;1.60;99.90;;;;;;5046500;28;20044;-72
2021/04/15 03:30:01;;;;;;;2.20;0.93;;;1.70;99.90;;;;;;5051182;28;20037;-71
2021/04/15 03:32:42;;;;;;;3.58;1.45;;;1.60;99.90;;;;;;5045881;28;20041;-72
2021/04/15 03:35:18;;;;;;;2.63;0.90;;;1.60;99.90;;;;;;5049825;28;20053;-72
2021/04/15 03:37:58;;;;;;;0.95;0.85;;;1.60;99.90;;;;;;5049904;28;20041;-72
2021/04/15 03:40:26;;;;;;;1.48;0.65;;;1.60;99.90;;;;;;5048356;28;20040;-71
2021/04/15 03:43:11;;;;;;;1.42;0.70;;;1.50;99.90;;;;;;5051261;28;20037;-72
2021/04/15 03:45:49;;;;;;;2.08;1.08;;;1.50;99.90;;;;;;5050158;28;20049;-72
2021/04/15 03:48:22;;;;;;;2.72;0.80;;;1.50;99.90;;;;;;5049720;28;20037;-72
2021/04/15 03:51:08;;;;;;;3.00;1.08;;;1.50;99.90;;;;;;5048768;28;20041;-72
2021/04/15 03:53:44;;;;;;;4.23;1.00;;;1.30;99.90;;;;;;5054278;28;20041;-72
2021/04/15 03:56:27;;;;;;;1.50;0.90;;;1.20;99.90;;;;;;5048647;28;20056;-72
2021/04/15 03:59:02;;;;;;;2.15;0.77;;;1.20;99.90;;;;;;5048077;28;20079;-72
2021/04/15 04:01:31;;;;;;;8.23;1.40;;;1.10;99.90;;;;;;5048164;28;20028;-72
2021/04/15 04:04:06;;;;;;;23.38;1.23;;;0.90;99.90;;;;;;5048385;28;20063;-72
2021/04/15 04:06:39;;;;;;;1.95;0.75;;;0.80;99.90;;;;;;5048253;28;20041;-72
2021/04/15 04:09:13;;;;;;;14.45;1.58;;;0.80;99.90;;;;;;5047374;28;20115;-72
2021/04/15 04:11:43;;;;;;;5.70;1.40;;;0.70;99.90;;;;;;5049313;28;20033;-71
2021/04/15 04:14:26;;;;;;;8.85;1.40;;;0.70;99.90;;;;;;5050207;28;20458;-71
2021/04/15 04:17:04;;;;;;;16.15;1.52;;;0.60;99.90;;;;;;5046879;28;20083;-71
2021/04/15 04:19:51;;;;;;;6.32;1.27;;;0.60;99.90;;;;;;5048833;28;20033;-72
2021/04/15 04:22:37;;;;;;;10.80;1.83;;;0.50;99.90;;;;;;5046023;28;20053;-71
2021/04/15 04:25:03;;;;;;;9.18;2.42;;;0.60;99.90;;;;;;5047423;28;20497;-71
2021/04/15 04:27:52;;;;;;;5.63;2.95;;;0.70;99.90;;;;;;5048402;28;20113;-71
2021/04/15 04:30:23;;;;;;;6.95;2.00;;;0.60;99.90;;;;;;5047339;28;20043;-71
2021/04/15 04:32:58;;;;;;;3.92;1.77;;;0.70;99.90;;;;;;5045972;28;20041;-71
2021/04/15 04:35:28;;;;;;;3.13;2.00;;;0.70;99.90;;;;;;5046774;28;20037;-71
2021/04/15 04:37:57;;;;;;;6.43;2.28;;;0.90;99.90;;;;;;5048220;28;20523;-71
2021/04/15 04:40:41;;;;;;;4.05;1.77;;;0.70;99.90;;;;;;5047311;28;20076;-71
2021/04/15 04:43:26;;;;;;;4.50;2.75;;;0.70;99.90;;;;;;5047859;28;20486;-72
2021/04/15 04:46:06;;;;;;;9.45;2.33;;;0.70;99.90;;;;;;5049961;28;20029;-72
2021/04/15 04:48:36;;;;;;;23.52;3.22;;;0.60;99.90;;;;;;5046755;28;20040;-72
2021/04/15 04:51:05;;;;;;;70.13;4.30;;;0.60;99.90;;;;;;5048147;28;20056;-72
2021/04/15 04:53:34;;;;;;;61.47;4.65;;;0.50;99.90;;;;;;5046096;28;20132;-72
2021/04/15 04:56:21;;;;;;;22.27;3.45;;;0.40;99.90;;;;;;5047351;28;20040;-72
2021/04/15 04:59:01;;;;;;;4.88;3.30;;;0.40;99.90;;;;;;5045227;28;20045;-71
2021/04/15 05:01:27;;;;;;;2.90;2.38;;;0.60;99.90;;;;;;5046215;28;20115;-72
2021/04/15 05:03:58;;;;;;;4.63;2.35;;;0.70;99.90;;;;;;5048886;28;20045;-72
2021/04/15 05:06:26;;;;;;;4.18;2.03;;;0.70;99.90;;;;;;5047862;28;20049;-72
2021/04/15 05:09:13;;;;;;;3.40;2.38;;;0.90;99.90;;;;;;5045265;28;20033;-72
2021/04/15 05:11:45;;;;;;;3.13;2.20;;;1.20;99.90;;;;;;5044532;28;20037;-72
2021/04/15 05:14:15;;;;;;;4.97;2.20;;;1.50;99.90;;;;;;5045570;28;20029;-72
2021/04/15 05:16:46;;;;;;;3.90;2.35;;;1.90;99.90;;;;;;5048602;28;20033;-72
2021/04/15 05:19:13;;;;;;;2.88;2.10;;;2.50;99.90;;;;;;5047040;28;20049;-73
2021/04/15 05:21:42;;;;;;;2.70;2.00;;;3.30;99.90;;;;;;5042850;28;20066;-73
2021/04/15 05:24:16;;;;;;;2.97;2.08;;;4.40;99.60;;;;;;5045609;28;20053;-73
2021/04/15 05:26:44;;;;;;;4.57;1.85;;;5.50;98.20;;;;;;5047892;28;20036;-74
2021/04/15 05:29:25;;;;;;;3.47;2.60;;;6.50;96.30;;;;;;5046398;28;20040;-74
2021/04/15 05:31:53;;;;;;;5.68;2.25;;;7.50;93.60;;;;;;5044765;28;20582;-74
2021/04/15 05:34:29;;;;;;;3.10;1.90;;;8.20;92.10;;;;;;5045981;28;20606;-74
2021/04/15 05:36:59;;;;;;;2.00;1.75;;;9.00;90.20;;;;;;5046459;28;20041;-75
2021/04/15 05:39:25;;;;;;;3.60;2.08;;;9.30;88.60;;;;;;5045825;28;20151;-75
2021/04/15 05:41:56;;;;;;;4.05;2.38;;;10.00;87.30;;;;;;5049743;28;20086;-75
2021/04/15 05:44:37;;;;;;;2.85;2.20;;;10.60;83.50;;;;;;5046537;28;21056;-76
2021/04/15 05:47:51;;;;;;;4.22;2.38;;;11.00;79.20;;;;;;5051689;28;20033;-76
2021/04/15 05:50:28;;;;;;;3.78;2.55;;;11.40;75.30;;;;;;5005416;28;20127;-76
2021/04/15 05:53:16;;;;;;;3.80;2.25;;;11.80;75.00;;;;;;5043252;28;20048;-77
2021/04/15 05:55:47;;;;;;;3.65;2.22;;;12.90;71.80;;;;;;5048281;28;20037;-77
2021/04/15 05:58:39;;;;;;;5.82;2.78;;;13.70;72.80;;;;;;5050877;28;20033;-77
2021/04/15 06:01:04;;;;;;;4.53;2.67;;;14.00;64.20;;;;;;5050813;28;20029;-77
2021/04/15 06:03:58;;;;;;;3.47;2.05;;;14.80;65.30;;;;;;5050284;28;20511;-77
2021/04/15 06:06:51;;;;;;;2.95;2.20;;;14.50;59.80;;;;;;5054844;28;20048;-77
2021/04/15 06:09:17;;;;;;;3.83;1.67;;;14.60;57.10;;;;;;5049728;28;20051;-77
2021/04/15 06:12:12;;;;;;;3.50;1.70;;;14.60;61.00;;;;;;5048809;28;20110;-78
2021/04/15 06:15:19;;;;;;;2.50;1.88;;;15.20;58.20;;;;;;5051699;28;20037;-78
2021/04/15 06:18:19;;;;;;;3.03;2.20;;;15.80;56.10;;;;;;5050763;28;20071;-78
2021/04/15 06:20:54;;;;;;;2.80;1.40;;;16.70;53.50;;;;;;5051664;28;20442;-78
2021/04/15 06:23:39;;;;;;;4.38;1.90;;;17.10;55.00;;;;;;5054348;28;20067;-78
2021/04/15 06:26:06;;;;;;;3.42;1.90;;;17.80;51.30;;;;;;5051042;28;20065;-78
2021/04/15 06:28:41;;;;;;;3.20;1.85;;;17.90;51.70;;;;;;5049344;28;20041;-78
2021/04/15 06:31:39;;;;;;;6.82;2.22;;;18.70;49.70;;;;;;5048518;28;20044;-78
2021/04/15 06:34:06;;;;;;;3.58;2.22;;;19.60;46.20;;;;;;5038838;28;20073;-78
2021/04/15 06:36:54;;;;;;;5.20;2.15;;;19.10;45.80;;;;;;5045987;28;20037;-78
2021/04/15 06:39:38;;;;;;;5.03;2.42;;;19.80;46.00;;;;;;5048486;28;20043;-78
2021/04/15 06:42:43;;;;;;;3.33;1.83;;;19.40;45.30;;;;;;5048798;28;20033;-78
2021/04/15 06:45:33;;;;;;;5.07;2.35;;;19.60;43.50;;;;;;5048298;28;20060;-78
2021/04/15 06:48:01;;;;;;;5.68;2.10;;;19.30;47.70;;;;;;5049317;28;20575;-78
2021/04/15 06:50:39;;;;;;;3.95;1.88;;;19.40;46.20;;;;;;5048544;28;20085;-78
2021/04/15 06:53:22;;;;;;;7.78;2.00;;;19.50;45.30;;;;;;5051332;28;20049;-78
2021/04/15 06:56:26;;;;;;;5.47;1.92;;;19.00;45.10;;;;;;5047291;28;20040;-78
2021/04/15 06:59:03;;;;;;;4.28;2.40;;;17.80;47.20;;;;;;5045537;28;20036;-77
2021/04/15 07:01:53;;;;;;;10.07;2.13;;;16.70;50.80;;;;;;5050894;28;20044;-77
2021/04/15 07:04:34;;;;;;;5.85;2.35;;;15.50;54.20;;;;;;5050495;28;20163;-77
2021/04/15 07:07:03;;;;;;;8.93;2.55;;;14.60;57.70;;;;;;5045082;28;20037;-76
2021/04/15 07:09:56;;;;;;;8.23;2.30;;;13.90;59.40;;;;;;5048390;28;20052;-76
2021/04/15 07:12:37;;;;;;;8.43;2.30;;;13.30;62.50;;;;;;5046547;28;20099;-76
2021/04/15 07:15:24;;;;;;;7.53;1.80;;;12.90;65.60;;;;;;5046061;28;20040;-77
2021/04/15 07:18:02;;;;;;;9.68;2.17;;;12.60;69.80;;;;;;5046685;28;20036;-76
2021/04/15 07:21:00;;;;;;;8.07;1.80;;;12.50;73.30;;;;;;5044756;28;20045;-76
2021/04/15 07:23:35;;;;;;;9.57;2.95;;;12.30;77.00;;;;;;5043290;28;20041;-76
2021/04/15 07:26:17;;;;;;;8.88;3.00;;;12.20;77.70;;;;;;5041898;28;20036;-77
2021/04/15 07:29:10;;;;;;;9.93;2.50;;;11.80;77.50;;;;;;5046731;28;20051;-76
2021/04/15 07:32:12;;;;;;;9.05;2.78;;;11.20;80.90;;;;;;5047553;28;20038;-76
2021/04/15 07:35:04;;;;;;;8.48;2.53;;;11.00;86.00;;;;;;5049542;28;20049;-76
2021/04/15 07:38:27;;;;;;;5.82;2.80;;;10.60;86.00;;;;;;5046402;28;20037;-76
2021/04/15 07:41:24;;;;;;;6.90;3.15;;;10.80;85.40;;;;;;5002067;28;20038;-75
2021/04/15 07:44:02;;;;;;;6.50;2.88;;;10.40;86.80;;;;;;5002060;28;20479;-76
2021/04/15 07:47:16;;;;;;;8.40;2.40;;;9.90;88.30;;;;;;5038729;28;20153;-75
2021/04/15 07:50:09;;;;;;;11.02;3.17;;;9.70;89.40;;;;;;5011048;28;20052;-75
2021/04/15 07:52:50;;;;;;;11.77;3.35;;;9.20;90.70;;;;;;5046049;28;20053;-75
2021/04/15 07:55:47;;;;;;;12.13;3.20;;;8.90;92.10;;;;;;5047209;28;20043;-75
2021/04/15 07:58:32;;;;;;;8.43;3.20;;;9.00;91.60;;;;;;5041433;28;20561;-75
2021/04/15 08:01:35;;;;;;;8.27;3.20;;;8.80;92.70;;;;;;5044466;28;20041;-75
2021/04/15 08:04:44;;;;;;;6.45;2.88;;;8.70;93.50;;;;;;5050468;28;20119;-74
2021/04/15 08:07:16;;;;;;;10.18;2.80;;;8.80;92.90;;;;;;5045102;28;20052;-74
2021/04/15 08:10:07;;;;;;;8.93;2.67;;;9.00;92.50;;;;;;5047033;28;20103;-74
2021/04/15 08:12:33;;;;;;;7.50;2.60;;;9.10;92.50;;;;;;5047933;28;20048;-74
2021/04/15 08:15:32;;;;;;;6.82;2.05;;;9.00;92.10;;;;;;5044580;28;20044;-75
2021/04/15 08:18:28;;;;;;;10.45;2.50;;;8.80;90.50;;;;;;5003556;28;20135;-74
2021/04/15 08:21:08;;;;;;;11.48;2.63;;;8.50;92.60;;;;;;5045609;28;20029;-74
2021/04/15 08:23:53;;;;;;;7.53;2.60;;;8.50;92.70;;;;;;5046617;28;20053;-75
2021/04/15 08:26:47;;;;;;;9.70;2.17;;;8.70;93.30;;;;;;5042259;28;20048;-74
2021/04/15 08:29:40;;;;;;;7.80;2.20;;;8.90;91.20;;;;;;5047815;28;20071;-74
2021/04/15 08:32:12;;;;;;;6.03;2.45;;;8.80;90.80;;;;;;5047379;28;20129;-75
2021/04/15 08:34:56;;;;;;;13.50;2.83;;;8.70;92.40;;;;;;5044528;28;20045;-74
2021/04/15 08:37:42;;;;;;;6.88;2.35;;;8.50;91.90;;;;;;5042225;28;20075;-74
2021/04/15 08:40:32;;;;;;;5.47;2.20;;;8.50;92.50;;;;;;5041083;28;20147;-72
2021/04/15 08:43:04;;;;;;;6.78;2.03;;;8.50;90.80;;;;;;5038343;28;20040;-72
2021/04/15 08:45:35;;;;;;;6.50;2.58;;;8.50;90.60;;;;;;5041009;28;20063;-72
2021/04/15 08:48:34;;;;;;;8.68;3.05;;;8.80;91.40;;;;;;5040520;28;20477;-72
2021/04/15 08:51:38;;;;;;;5.88;2.40;;;9.40;91.20;;;;;;5040760;28;20037;-72
2021/04/15 08:54:32;;;;;;;12.82;2.55;;;9.40;88.80;;;;;;5047648;28;20032;-72
2021/04/15 08:57:25;;;;;;;6.47;1.98;;;9.60;89.90;;;;;;5017787;28;20049;-72
2021/04/15 08:59:57;;;;;;;9.48;2.10;;;9.90;90.10;;;;;;5044595;28;20037;-72
2021/04/15 09:02:35;;;;;;;6.00;1.80;;;10.00;88.10;;;;;;5045886;28;20059;-72
2021/04/15 09:05:16;;;;;;;5.75;2.08;;;9.90;83.00;;;;;;5044999;28;20045;-72
2021/04/15 09:07:59;;;;;;;9.60;2.22;;;9.80;87.90;;;;;;5042006;28;20037;-72
2021/04/15 09:10:38;;;;;;;5.97;1.92;;;10.10;89.40;;;;;;5047376;28;20041;-73
2021/04/15 09:13:44;;;;;;;4.88;1.88;;;9.90;83.70;;;;;;5048728;28;20123;-72
2021/04/15 09:16:36;;;;;;;5.63;2.00;;;10.10;86.80;;;;;;5036859;28;20140;-73
2021/04/15 09:19:16;;;;;;;5.18;2.05;;;10.30;85.30;;;;;;5045727;28;20107;-74
2021/04/15 09:21:55;;;;;;;5.47;1.55;;;10.50;82.40;;;;;;5048129;28;20445;-73
2021/04/15 09:24:42;;;;;;;6.45;2.28;;;10.70;81.10;;;;;;5046464;28;20094;-74
2021/04/15 09:27:31;;;;;;;7.88;1.60;;;10.40;78.70;;;;;;5044985;28;20045;-75
2021/04/15 09:30:25;;;;;;;7.55;2.08;;;10.20;77.30;;;;;;5047775;28;20033;-74
2021/04/15 09:32:56;;;;;;;2.00;0.90;;;9.80;76.50;;;;;;5042775;28;20033;-73
2021/04/15 09:35:44;;;;;;;3.38;1.08;;;10.10;77.40;;;;;;5049122;28;20045;-71
2021/04/15 09:38:33;;;;;;;7.32;1.70;;;9.70;68.60;;;;;;5043905;28;20051;-73
2021/04/15 09:41:26;;;;;;;4.75;1.48;;;9.80;74.20;;;;;;5036515;28;20076;-73
2021/04/15 09:44:27;;;;;;;4.45;1.88;;;9.70;72.10;;;;;;5048153;28;20073;-74
2021/04/15 09:47:22;;;;;;;2.67;1.25;;;9.90;78.70;;;;;;5043952;28;20041;-73
2021/04/15 09:49:58;;;;;;;4.60;1.83;;;10.00;72.10;;;;;;5013460;28;20053;-73
2021/04/15 09:52:57;;;;;;;5.72;1.45;;;10.30;72.80;;;;;;5040283;28;20041;-73
2021/04/15 09:55:42;;;;;;;7.82;1.80;;;10.60;74.80;;;;;;5031174;28;20836;-73
2021/04/15 09:58:34;;;;;;;2.10;1.10;;;10.80;77.20;;;;;;5047016;28;20037;-73
2021/04/15 10:01:09;;;;;;;6.63;0.98;;;10.80;57.40;;;;;;5029437;28;20040;-73
2021/04/15 10:03:47;;;;;;;1.98;0.75;;;10.40;56.10;;;;;;5047750;28;20548;-73
2021/04/15 10:06:36;;;;;;;2.83;0.52;;;10.00;58.50;;;;;;5045303;28;21635;-73
2021/04/15 10:09:18;;;;;;;4.10;1.20;;;9.70;63.50;;;;;;5049235;28;20072;-73
2021/04/15 10:12:32;;;;;;;2.92;1.15;;;9.40;61.10;;;;;;5045780;28;20037;-72
2021/04/15 10:15:29;;;;;;;3.50;0.82;;;9.20;60.00;;;;;;4999408;28;20096;-73
2021/04/15 10:18:05;;;;;;;4.28;0.90;;;9.00;62.20;;;;;;5048089;28;20072;-72
2021/04/15 10:21:05;;;;;;;3.95;1.42;;;8.90;64.00;;;;;;5047208;28;20147;-73
2021/04/15 10:23:33;;;;;;;2.88;0.90;;;8.80;63.60;;;;;;5051986;28;20488;-73
2021/04/15 10:26:07;;;;;;;7.45;0.90;;;8.80;61.90;;;;;;5047151;28;20418;-72
2021/04/15 10:28:55;;;;;;;4.22;1.00;;;8.70;62.80;;;;;;5049419;28;20037;-72
2021/04/15 10:31:24;;;;;;;3.50;0.88;;;9.30;65.30;;;;;;5048030;28;20045;-73
2021/04/15 10:34:08;;;;;;;2.55;0.70;;;9.20;61.70;;;;;;5041680;28;20102;-72
2021/04/15 10:36:42;;;;;;;3.95;1.10;;;9.30;64.80;;;;;;5042780;28;20439;-73
2021/04/15 10:39:33;;;;;;;5.03;1.02;;;9.30;62.50;;;;;;5049266;28;20042;-72
2021/04/15 10:42:34;;;;;;;2.88;0.68;;;8.90;58.70;;;;;;5050037;28;20067;-73
2021/04/15 10:45:35;;;;;;;6.68;0.60;;;9.00;62.50;;;;;;5050914;28;20060;-72
2021/04/15 10:48:24;;;;;;;2.30;0.80;;;9.00;59.90;;;;;;5016839;28;20120;-72
2021/04/15 10:51:03;;;;;;;4.45;0.93;;;9.30;62.40;;;;;;5043882;28;20041;-72
2021/04/15 10:53:54;;;;;;;2.80;0.60;;;9.70;63.40;;;;;;5049156;28;20662;-72
2021/04/15 10:56:23;;;;;;;2.67;0.90;;;9.60;56.70;;;;;;5049047;28;20139;-73
2021/04/15 10:58:53;;;;;;;2.25;0.70;;;9.60;57.20;;;;;;5049062;28;20124;-72
2021/04/15 11:01:21;;;;;;;3.35;1.08;;;9.50;58.90;;;;;;5051247;28;20078;-72
2021/04/15 11:03:47;;;;;;;2.03;0.70;;;9.60;58.10;;;;;;5050172;28;20563;-72
2021/04/15 11:06:32;;;;;;;4.10;1.15;;;9.50;57.30;;;;;;5045365;28;20419;-73
2021/04/15 11:09:52;;;;;;;2.67;0.82;;;9.50;58.90;;;;;;5050970;28;20029;-72
2021/04/15 11:12:26;;;;;;;3.20;0.93;;;9.50;57.30;;;;;;5004217;28;20041;-72
2021/04/15 11:14:57;;;;;;;1.70;0.88;;;10.00;58.00;;;;;;5014950;28;20033;-72
2021/04/15 11:17:37;;;;;;;3.10;0.85;;;10.30;56.00;;;;;;5028660;28;20045;-72
2021/04/15 11:20:23;;;;;;;4.45;0.90;;;10.70;56.10;;;;;;5051889;28;20045;-73
2021/04/15 11:23:00;;;;;;;6.88;0.80;;;10.90;52.30;;;;;;5045369;28;20033;-73
2021/04/15 11:25:45;;;;;;;5.18;1.23;;;10.40;51.50;;;;;;5054256;28;20041;-72
2021/04/15 11:28:18;;;;;;;3.67;1.17;;;10.00;52.50;;;;;;5049496;28;20553;-72
2021/04/15 11:30:50;;;;;;;1.77;0.50;;;9.90;54.40;;;;;;5047266;28;20043;-72
2021/04/15 11:33:42;;;;;;;2.33;0.80;;;9.90;55.70;;;;;;5049491;28;20059;-72
2021/04/15 11:36:15;;;;;;;2.47;1.00;;;9.90;52.40;;;;;;5055619;28;20056;-72
2021/04/15 11:38:44;;;;;;;3.35;0.70;;;10.40;53.80;;;;;;5047303;28;20113;-72
2021/04/15 11:41:25;;;;;;;2.03;0.80;;;10.60;52.60;;;;;;5053708;28;20037;-72
2021/04/15 11:44:06;;;;;;;5.03;0.75;;;10.50;50.00;;;;;;5050068;28;20115;-72
2021/04/15 11:46:51;;;;;;;2.70;1.17;;;10.40;50.40;;;;;;5049638;28;20596;-72
2021/04/15 11:49:19;;;;;;;1.75;0.68;;;10.20;50.80;;;;;;5049167;28;20526;-72
2021/04/15 11:51:59;;;;;;;5.25;0.82;;;10.00;51.40;;;;;;5053619;28;20399;-72
2021/04/15 11:54:39;;;;;;;2.75;0.68;;;9.90;48.10;;;;;;5047515;28;20052;-71
2021/04/15 11:57:19;;;;;;;5.22;1.67;;;9.70;49.20;;;;;;5048639;28;20024;-72
2021/04/15 12:00:00;;;;;;;5.03;0.95;;;9.70;51.30;;;;;;5048267;28;20498;-71
2021/04/15 12:02:50;;;;;;;2.78;1.50;;;9.90;49.60;;;;;;5049935;28;20037;-72
2021/04/15 12:05:32;;;;;;;1.85;0.70;;;10.40;51.20;;;;;;5048854;28;20048;-72
2021/04/15 12:08:37;;;;;;;5.38;0.80;;;10.70;50.00;;;;;;5047143;28;20086;-72
2021/04/15 12:11:27;;;;;;;2.22;0.73;;;11.00;52.70;;;;;;5013574;28;20059;-72
2021/04/15 12:14:12;;;;;;;1.42;0.60;;;10.90;49.40;;;;;;5049701;28;20049;-72
2021/04/15 12:17:18;;;;;;;3.03;0.63;;;11.00;46.20;;;;;;5052025;28;20044;-72
2021/04/15 12:19:46;;;;;;;2.90;0.63;;;11.00;51.40;;;;;;5043055;28;20390;-72
2021/04/15 12:22:31;;;;;;;1.42;0.47;;;10.50;45.10;;;;;;5049909;28;20071;-72
2021/04/15 12:25:07;;;;;;;0.85;0.30;;;10.30;44.70;;;;;;5049796;28;20048;-72
2021/04/15 12:27:34;;;;;;;;;;;10.40;47.90;;;;;;5047916;28;20127;-71
2021/04/15 12:30:22;;;;;;;2.72;0.57;;;10.70;44.40;;;;;;5047410;28;19929;-72
2021/04/15 12:33:03;;;;;;;9.85;0.85;;;11.00;45.70;;;;;;5049832;28;20115;-72
2021/04/15 12:35:46;;;;;;;5.63;0.70;;;11.20;43.60;;;;;;5060565;28;20487;-72
2021/04/15 12:38:21;;;;;;;2.38;1.10;;;11.10;45.40;;;;;;5041090;28;20041;-72
2021/04/15 12:40:50;;;;;;;3.05;1.00;;;11.00;46.40;;;;;;5055035;28;20123;-72
2021/04/15 12:43:29;;;;;;;3.17;0.75;;;10.50;48.90;;;;;;5048840;28;20223;-72
2021/04/15 12:46:01;;;;;;;1.65;0.70;;;10.40;49.90;;;;;;5047448;28;20045;-73
2021/04/15 12:48:33;;;;;;;1.25;0.50;;;10.40;48.10;;;;;;5047741;28;20074;-72
2021/04/15 12:51:00;;;;;;;2.90;1.13;;;10.30;49.90;;;;;;5047205;28;20192;-72
2021/04/15 12:53:29;;;;;;;3.70;1.00;;;10.30;50.00;;;;;;5050367;28;20119;-72
2021/04/15 12:55:55;;;;;;;2.85;0.82;;;10.20;49.80;;;;;;5048574;28;20037;-72
2021/04/15 12:58:22;;;;;;;3.42;0.73;;;10.20;49.50;;;;;;5055282;28;20037;-72
2021/04/15 13:00:53;;;;;;;3.90;1.00;;;10.30;47.50;;;;;;5050141;28;20044;-72
2021/04/15 13:03:21;;;;;;;3.33;0.80;;;10.60;51.40;;;;;;5047239;28;20040;-72
2021/04/15 13:05:51;;;;;;;2.00;0.93;;;10.90;47.40;;;;;;5047823;28;20487;-72
2021/04/15 13:08:54;;;;;;;2.33;0.90;;;10.80;47.40;;;;;;5047823;28;20291;-72
2021/04/15 13:11:20;;;;;;;1.67;0.77;;;10.50;47.20;;;;;;5050128;28;20142;-72
2021/04/15 13:13:55;;;;;;;2.60;0.93;;;10.30;47.80;;;;;;5057150;28;20067;-72
2021/04/15 13:16:35;;;;;;;4.70;0.98;;;10.20;47.40;;;;;;5043059;28;20048;-72
2021/04/15 13:19:10;;;;;;;1.88;1.13;;;10.10;52.00;;;;;;5047339;28;20360;-72
2021/04/15 13:21:41;;;;;;;2.33;0.73;;;10.30;49.10;;;;;;5045233;28;20121;-71
2021/04/15 13:24:45;;;;;;;1.42;0.60;;;10.50;47.90;;;;;;5053721;28;20056;-72
2021/04/15 13:27:36;;;;;;;4.00;1.45;;;10.90;52.60;;;;;;5049696;28;20048;-72
2021/04/15 13:30:21;;;;;;;3.25;0.90;;;11.20;49.00;;;;;;5045079;28;20059;-72
2021/04/15 13:33:13;;;;;;;1.92;0.65;;;11.30;50.00;;;;;;5051033;28;20043;-72
2021/04/15 13:36:16;;;;;;;4.70;0.90;;;11.60;50.50;;;;;;5046527;28;20029;-72
2021/04/15 13:38:57;;;;;;;4.82;1.05;;;11.90;51.20;;;;;;5054676;28;20040;-72
2021/04/15 13:41:26;;;;;;;3.45;0.93;;;11.80;47.10;;;;;;5044733;28;20250;-72
2021/04/15 13:43:58;;;;;;;3.33;0.90;;;11.80;49.80;;;;;;5047163;28;20104;-74
2021/04/15 13:46:31;;;;;;;2.30;1.02;;;11.80;46.90;;;;;;5046623;28;20459;-73
2021/04/15 13:48:59;;;;;;;2.47;0.68;;;11.60;43.20;;;;;;5049049;28;20112;-74
2021/04/15 13:51:35;;;;;;;2.95;0.63;;;11.50;41.80;;;;;;5046151;28;20064;-74
2021/04/15 13:54:16;;;;;;;2.38;0.80;;;11.20;40.40;;;;;;5044156;28;20056;-73
2021/04/15 13:56:56;;;;;;;2.35;0.60;;;10.70;40.20;;;;;;5048575;28;20059;-73
2021/04/15 13:59:42;;;;;;;2.33;0.60;;;10.70;41.10;;;;;;5046513;28;20040;-73